Bobruysr, Belarus
Current Conditions -  °F | °C
As of 8:49 AM on Thursday 27 Nov 2014 (Local Time) from UMMS Reporting Station
Light Snow Light Snow  
Wind Chill:   Ceiling: 700
Heat Index: 18°   Visibility: 2.8mi
Dew Point: 16°   Wind: 7mph
Humidity: 93%   Direction: 160°SSE
Pressure: 30.36"   Gusts: NA
Location:  53.22°N, 29.18°E
Report Text: UMMS 270649Z 16003MPS 4600 -SN BR OVC007 M08/M09 Q1028 R13/810355NOSIG
Loading
Personal Weather Stations






























Interactive Weather Map New forecast layout! Learn more

10-Day Weather Forecast

Advertisements
Track Severe Weather on mobile